Morgenster — PHMY — position and weather

sailwx.info

Track history (hours):
 
Tides and Currents Weather Stations Pressure Air Temp Water Temp Dewpoint Dewpoint Depression Visibility Wind Speed Wind Dir Waves Ship Positions

Morgenster

Last reported at 2015-May-03 19:32 UTC. Time now 2015-May-03 19:56 UTC.
Position N 51°02' E 001°53'.

Length 38 m; draft 2.4 m.

Type: Sailing vessel. MMSI: 245136000.

Date/timePositionNaut miles runAvg speedWind from/ knotsBaromVisibWave heightAir tempDewpointWater temp
2015-May-03 19:32N 51°02' E 001°53'8 8.0
2015-May-03 18:33N 51°03' E 002°06'10 8.3
2015-May-03 17:23N 51°04' E 002°21'7 7.5
2015-May-03 16:27N 51°07' E 002°31'6 6.8
2015-May-03 15:33N 51°12' E 002°38'6 6.2
2015-May-03 14:33N 51°15' E 002°46'6 6.3
2015-May-03 13:34N 51°19' E 002°54'5 4.8
2015-May-03 12:32N 51°21' E 003°01'11 4.9
2015-May-03 10:24N 51°25' E 003°17'6 7.1
2015-May-03 09:33N 51°25' E 003°27'6 6.0
2015-May-03 08:33N 51°27' E 003°36'0 0.0
2015-May-03 07:31N 51°27' E 003°36'0 0.0
2015-May-03 06:31N 51°27' E 003°36'0 0.0
2015-May-03 05:33N 51°27' E 003°36'0 0.0
2015-May-03 04:28N 51°27' E 003°36'0 0.0
2015-May-03 03:30N 51°27' E 003°36'0 0.0
2015-May-03 02:33N 51°27' E 003°36'0 0.0
2015-May-03 01:33N 51°27' E 003°36'0 0.0
2015-May-03 00:32N 51°27' E 003°36'5 4.5
2015-May-02 23:32N 51°29' E 003°30'5 5.5
2015-May-02 22:33N 51°34' E 003°26'8 8.1
2015-May-02 21:31N 51°42' E 003°29'9 8.8
2015-May-02 20:32N 51°49' E 003°39'9 8.8
2015-May-02 19:30N 51°55' E 003°49'8 8.7
2015-May-02 18:33N 52°01' E 003°59'6 6.3
2015-May-02 17:33N 52°04' E 004°07'6 6.3
2015-May-02 16:33N 52°08' E 004°16'6 6.2
2015-May-02 15:33N 52°14' E 004°17'5 4.9
2015-May-02 14:33N 52°18' E 004°21'5 4.8
2015-May-02 13:33N 52°22' E 004°25'5 4.7
2015-May-02 12:33N 52°26' E 004°30'4 4.3
2015-May-02 11:33N 52°30' E 004°32'6 6.3
2015-May-02 10:33N 52°36' E 004°32'7 6.9
2015-May-02 09:33N 52°43' E 004°34'7 7.3
2015-May-02 08:32N 52°50' E 004°36'9 7.5
2015-May-02 07:17N 52°58' E 004°45'2 2.2
2015-May-02 06:27N 52°57' E 004°47'1 0.9
2015-May-02 05:32N 52°57' E 004°46'0 0.0
2015-May-02 04:32N 52°57' E 004°46'0 0.0
2015-May-02 03:26N 52°57' E 004°46'0 0.0
2015-May-02 02:32N 52°57' E 004°46'0 0.0
2015-May-02 01:32N 52°57' E 004°46'0 0.0
2015-May-02 00:20N 52°57' E 004°46'0 0.0
2015-May-01 23:32N 52°57' E 004°46'0 0.0
2015-May-01 22:26N 52°57' E 004°46'0 0.0
2015-May-01 21:26N 52°57' E 004°46'0 0.0
2015-May-01 18:32N 52°57' E 004°46'0 0.0
2015-May-01 17:29N 52°57' E 004°46'0 0.0
2015-May-01 16:29N 52°57' E 004°46'0 0.0
2015-May-01 15:29N 52°57' E 004°46'0 0.0
2015-May-01 14:29N 52°57' E 004°46'0 0.0
2015-May-01 13:26N 52°57' E 004°46'0 0.0
2015-May-01 12:23N 52°57' E 004°46'0 0.0
2015-May-01 11:23N 52°57' E 004°46'0 0.0
2015-May-01 10:20N 52°57' E 004°46'0 0.0
2015-May-01 09:17N 52°57' E 004°46'0 0.0
2015-May-01 08:32N 52°57' E 004°46'0 0.0
2015-May-01 07:32N 52°57' E 004°46'0 0.0
2015-May-01 06:29N 52°57' E 004°46'0 0.0
2015-May-01 05:29N 52°57' E 004°46'0 0.0
2015-May-01 04:17N 52°57' E 004°46'0 0.0
2015-May-01 03:08N 52°57' E 004°46'0 0.0
2015-May-01 02:29N 52°57' E 004°46'0 0.0
2015-May-01 01:23N 52°57' E 004°46'0 0.0
2015-May-01 00:17N 52°57' E 004°46'0 0.0
2015-Apr-30 23:29N 52°57' E 004°46'0 0.0
2015-Apr-30 22:11N 52°57' E 004°46'0 0.0
2015-Apr-30 21:32N 52°57' E 004°46'0 0.0
2015-Apr-30 20:20N 52°57' E 004°46'0 0.0
2015-Apr-30 19:26N 52°57' E 004°46'0 0.0
2015-Apr-30 18:32N 52°57' E 004°46'0 0.0
2015-Apr-30 17:29N 52°57' E 004°46'0 0.0
2015-Apr-30 16:32N 52°57' E 004°46'0 0.0
2015-Apr-30 15:32N 52°57' E 004°46'0 0.0
2015-Apr-30 14:29N 52°57' E 004°46'0 0.0
2015-Apr-30 13:32N 52°57' E 004°46'0 0.0
2015-Apr-30 12:32N 52°57' E 004°46'0 0.0
2015-Apr-30 11:32N 52°57' E 004°46'0 0.0
2015-Apr-30 10:17N 52°57' E 004°46'0 0.0
2015-Apr-30 09:26N 52°57' E 004°46'0 0.0
2015-Apr-30 08:29N 52°57' E 004°46'0 0.0
2015-Apr-30 07:26N 52°57' E 004°46'0 0.0
2015-Apr-30 06:23N 52°57' E 004°46'0 0.0
2015-Apr-30 05:23N 52°57' E 004°46'0 0.0
2015-Apr-30 04:26N 52°57' E 004°46'0 0.0
2015-Apr-30 03:29N 52°57' E 004°46'0 0.0
2015-Apr-30 02:32N 52°57' E 004°46'0 0.0
2015-Apr-30 01:26N 52°57' E 004°46'0 0.0
2015-Apr-30 00:23N 52°57' E 004°46'0 0.0
2015-Apr-29 23:26N 52°57' E 004°46'0 0.0
2015-Apr-29 22:32N 52°57' E 004°46'0 0.0
2015-Apr-29 21:29N 52°57' E 004°46'0 0.0
2015-Apr-29 20:26N 52°57' E 004°46'0 0.0
2015-Apr-29 19:26N 52°57' E 004°46'0 0.0
2015-Apr-29 18:17N 52°57' E 004°46'0 0.0
2015-Apr-29 17:29N 52°57' E 004°46'0 0.0
2015-Apr-29 16:23N 52°57' E 004°46'0 0.0
2015-Apr-29 15:05N 52°57' E 004°46'0 0.0
2015-Apr-29 14:17N 52°57' E 004°46'0 0.0
2015-Apr-29 12:20N 52°57' E 004°46'0 0.0
2015-Apr-29 11:32N 52°57' E 004°46'0 0.0
2015-Apr-29 10:29N 52°57' E 004°46'0 0.0
2015-Apr-29 09:14N 52°57' E 004°46'0 0.0
2015-Apr-29 08:26N 52°57' E 004°46'0 0.0
2015-Apr-29 07:29N 52°57' E 004°46'0 0.0
2015-Apr-29 06:29N 52°57' E 004°46'0 0.0
2015-Apr-29 05:29N 52°57' E 004°46'0 0.0
2015-Apr-29 04:20N 52°57' E 004°46'0 0.0
2015-Apr-29 03:23N 52°57' E 004°46'0 0.0
2015-Apr-29 02:32N 52°57' E 004°46'0 0.0
2015-Apr-29 01:29N 52°57' E 004°46'0 0.0
2015-Apr-29 00:20N 52°57' E 004°46'0 0.0
2015-Apr-28 23:08N 52°57' E 004°46'0 0.0
2015-Apr-28 22:32N 52°57' E 004°46'0 0.0
2015-Apr-28 21:26N 52°57' E 004°46'0 0.0
2015-Apr-28 20:32N 52°57' E 004°46'0 0.0
2015-Apr-28 19:29N 52°57' E 004°46'0 0.0
2015-Apr-28 18:32N 52°57' E 004°46'0 0.0
2015-Apr-28 17:32N 52°57' E 004°46'0 0.0
2015-Apr-28 16:32N 52°57' E 004°46'0 0.0
2015-Apr-28 15:26N 52°57' E 004°46'0 0.0
2015-Apr-28 14:26N 52°57' E 004°46'0 0.0
2015-Apr-28 13:26N 52°57' E 004°46'0 0.0
2015-Apr-28 12:29N 52°57' E 004°46'0 0.0
2015-Apr-28 11:32N 52°57' E 004°46'0 0.0
2015-Apr-28 10:32N 52°57' E 004°46'0 0.0
2015-Apr-28 09:32N 52°57' E 004°46'0 0.0
2015-Apr-28 08:29N 52°57' E 004°46'0 0.0
2015-Apr-28 07:26N 52°57' E 004°46'0 0.0
2015-Apr-28 06:26N 52°57' E 004°46'0 0.0
2015-Apr-28 05:32N 52°57' E 004°46'0 0.0
2015-Apr-28 04:32N 52°57' E 004°46'0 0.0
2015-Apr-28 03:26N 52°57' E 004°46'0 0.0
2015-Apr-28 02:29N 52°57' E 004°46'0 0.0
2015-Apr-28 01:32N 52°57' E 004°46'0 0.0
2015-Apr-28 00:32N 52°57' E 004°46'0 0.0
2015-Apr-27 23:14N 52°57' E 004°46'0 0.0
2015-Apr-27 22:32N 52°57' E 004°46'0 0.0
2015-Apr-27 21:26N 52°57' E 004°46'0 0.0
2015-Apr-27 20:32N 52°57' E 004°46'0 0.0
2015-Apr-27 19:29N 52°57' E 004°46'0 0.0
2015-Apr-27 18:29N 52°57' E 004°46'0 0.0
2015-Apr-27 17:26N 52°57' E 004°46'0 0.0
2015-Apr-27 16:32N 52°57' E 004°46'0 0.0
2015-Apr-27 15:29N 52°57' E 004°46'0 0.0
2015-Apr-27 14:32N 52°57' E 004°46'0 0.0
2015-Apr-27 13:20N 52°57' E 004°46'0 0.0
2015-Apr-27 12:32N 52°57' E 004°46'0 0.0
2015-Apr-27 11:32N 52°57' E 004°46'0 0.0
2015-Apr-27 10:26N 52°57' E 004°46'0 0.0
2015-Apr-27 09:32N 52°57' E 004°46'0 0.0
2015-Apr-27 08:26N 52°57' E 004°46'0 0.0
2015-Apr-27 07:32N 52°57' E 004°46'0 0.0
2015-Apr-27 04:14N 52°57' E 004°46'0 0.0
2015-Apr-27 03:26N 52°57' E 004°46'0 0.0
2015-Apr-27 02:29N 52°57' E 004°46'0 0.0
2015-Apr-26 23:32N 52°57' E 004°46'0 0.0
2015-Apr-26 20:32N 52°57' E 004°46'0 0.0
2015-Apr-26 19:32N 52°57' E 004°46'0 0.0
2015-Apr-26 11:29N 52°57' E 004°46'1 1.1
2015-Apr-26 10:33N 52°58' E 004°47'4 3.5
2015-Apr-26 09:33N 53°01' E 004°51'2 1.8
2015-Apr-26 08:34N 52°60' E 004°49'3 3.3
2015-Apr-26 07:31N 52°58' E 004°44'29 2.7
2015-Apr-25 20:30N 52°34' E 004°17'9 9.2
2015-Apr-25 19:34N 52°25' E 004°14'7 7.3
2015-Apr-25 18:33N 52°19' E 004°09'7 7.4
2015-Apr-25 17:33N 52°12' E 004°05'8 7.9
2015-Apr-25 16:33N 52°04' E 004°04'6 6.5
2015-Apr-25 15:33N 51°58' E 004°05'1 1.2
2015-Apr-25 14:33N 51°58' E 004°03'0 0.3
2015-Apr-25 13:33N 51°58' E 004°03'1 1.5
2015-Apr-25 12:33N 51°59' E 004°04'6 5.9
2015-Apr-25 11:33N 51°56' E 004°13'6 5.3
2015-Apr-25 10:28N 51°54' E 004°21'5 5.0
2015-Apr-25 09:32N 51°54' E 004°29'0 0.0
2015-Apr-25 08:32N 51°54' E 004°29'0 0.0
2015-Apr-25 07:32N 51°54' E 004°29'0 0.0
2015-Apr-25 06:32N 51°54' E 004°29'0 0.0
2015-Apr-25 05:32N 51°54' E 004°29'0 0.0
2015-Apr-25 04:32N 51°54' E 004°29'0 0.0
2015-Apr-25 03:32N 51°54' E 004°29'0 0.0
2015-Apr-25 02:32N 51°54' E 004°29'0 0.0
2015-Apr-25 01:32N 51°54' E 004°29'0 0.0
2015-Apr-25 00:32N 51°54' E 004°29'0 0.0
2015-Apr-24 23:32N 51°54' E 004°29'0 0.0
2015-Apr-24 22:32N 51°54' E 004°29'0 0.0
2015-Apr-24 21:32N 51°54' E 004°29'0 0.0
2015-Apr-24 20:32N 51°54' E 004°29'0 0.0
2015-Apr-24 19:32N 51°54' E 004°29'0 0.0
2015-Apr-24 18:32N 51°54' E 004°29'0 0.0
2015-Apr-24 17:32N 51°54' E 004°29'0 0.0
2015-Apr-24 16:32N 51°54' E 004°29'0 0.0
2015-Apr-24 15:32N 51°54' E 004°29'0 0.0
2015-Apr-24 14:32N 51°54' E 004°29'0 0.0
2015-Apr-24 13:32N 51°54' E 004°29'0 0.0
2015-Apr-24 12:32N 51°54' E 004°29'0 0.0
2015-Apr-24 11:32N 51°54' E 004°29'0 0.2
2015-Apr-24 10:33N 51°54' E 004°29'4 4.4
2015-Apr-24 09:33N 51°54' E 004°21'4 4.4
2015-Apr-24 08:33N 51°55' E 004°15'5 4.6
2015-Apr-24 07:33N 51°58' E 004°09'5 4.7
2015-Apr-24 06:33N 51°60' E 004°02'6 5.9
2015-Apr-24 05:28N 51°59' E 003°51'6 6.4
2015-Apr-24 04:33N 51°58' E 003°42'8 7.6
2015-Apr-24 03:33N 51°56' E 003°30'7 6.5
2015-Apr-24 02:33N 51°54' E 003°20'6 5.8
2015-Apr-24 01:31N 51°52' E 003°11'7 5.3
2015-Apr-24 00:14N 51°50' E 003°01'3 5.0
2015-Apr-23 23:34N 51°49' E 002°55'5 4.9
2015-Apr-23 22:31N 51°47' E 002°48'11 5.5
2015-Apr-23 20:33N 51°41' E 002°33'  
Track history (hours):
 
Tides and Currents Weather Stations Pressure Air Temp Water Temp Dewpoint Dewpoint Depression Visibility Wind Speed Wind Dir Waves Ship Positions

Morgenster

Last reported at 2015-May-03 19:32 UTC. Time now 2015-May-03 19:56 UTC.
Position N 51°02' E 001°53'.

Length 38 m; draft 2.4 m.

Type: Sailing vessel. MMSI: 245136000.

Date/timePositionNaut miles runAvg speedWind from/ knotsBaromVisibWave heightAir tempDewpointWater temp
2015-May-03 19:32N 51°02' E 001°53'8 8.0
2015-May-03 18:33N 51°03' E 002°06'10 8.3
2015-May-03 17:23N 51°04' E 002°21'7 7.5
2015-May-03 16:27N 51°07' E 002°31'6 6.8
2015-May-03 15:33N 51°12' E 002°38'6 6.2
2015-May-03 14:33N 51°15' E 002°46'6 6.3
2015-May-03 13:34N 51°19' E 002°54'5 4.8
2015-May-03 12:32N 51°21' E 003°01'11 4.9
2015-May-03 10:24N 51°25' E 003°17'6 7.1
2015-May-03 09:33N 51°25' E 003°27'6 6.0
2015-May-03 08:33N 51°27' E 003°36'0 0.0
2015-May-03 07:31N 51°27' E 003°36'0 0.0
2015-May-03 06:31N 51°27' E 003°36'0 0.0
2015-May-03 05:33N 51°27' E 003°36'0 0.0
2015-May-03 04:28N 51°27' E 003°36'0 0.0
2015-May-03 03:30N 51°27' E 003°36'0 0.0
2015-May-03 02:33N 51°27' E 003°36'0 0.0
2015-May-03 01:33N 51°27' E 003°36'0 0.0
2015-May-03 00:32N 51°27' E 003°36'5 4.5
2015-May-02 23:32N 51°29' E 003°30'5 5.5
2015-May-02 22:33N 51°34' E 003°26'8 8.1
2015-May-02 21:31N 51°42' E 003°29'9 8.8
2015-May-02 20:32N 51°49' E 003°39'9 8.8
2015-May-02 19:30N 51°55' E 003°49'8 8.7
2015-May-02 18:33N 52°01' E 003°59'6 6.3
2015-May-02 17:33N 52°04' E 004°07'6 6.3
2015-May-02 16:33N 52°08' E 004°16'6 6.2
2015-May-02 15:33N 52°14' E 004°17'5 4.9
2015-May-02 14:33N 52°18' E 004°21'5 4.8
2015-May-02 13:33N 52°22' E 004°25'5 4.7
2015-May-02 12:33N 52°26' E 004°30'4 4.3
2015-May-02 11:33N 52°30' E 004°32'6 6.3
2015-May-02 10:33N 52°36' E 004°32'7 6.9
2015-May-02 09:33N 52°43' E 004°34'7 7.3
2015-May-02 08:32N 52°50' E 004°36'9 7.5
2015-May-02 07:17N 52°58' E 004°45'2 2.2
2015-May-02 06:27N 52°57' E 004°47'1 0.9
2015-May-02 05:32N 52°57' E 004°46'0 0.0
2015-May-02 04:32N 52°57' E 004°46'0 0.0
2015-May-02 03:26N 52°57' E 004°46'0 0.0
2015-May-02 02:32N 52°57' E 004°46'0 0.0
2015-May-02 01:32N 52°57' E 004°46'0 0.0
2015-May-02 00:20N 52°57' E 004°46'0 0.0
2015-May-01 23:32N 52°57' E 004°46'0 0.0
2015-May-01 22:26N 52°57' E 004°46'0 0.0
2015-May-01 21:26N 52°57' E 004°46'0 0.0
2015-May-01 18:32N 52°57' E 004°46'0 0.0
2015-May-01 17:29N 52°57' E 004°46'0 0.0
2015-May-01 16:29N 52°57' E 004°46'0 0.0
2015-May-01 15:29N 52°57' E 004°46'0 0.0
2015-May-01 14:29N 52°57' E 004°46'0 0.0
2015-May-01 13:26N 52°57' E 004°46'0 0.0
2015-May-01 12:23N 52°57' E 004°46'0 0.0
2015-May-01 11:23N 52°57' E 004°46'0 0.0
2015-May-01 10:20N 52°57' E 004°46'0 0.0
2015-May-01 09:17N 52°57' E 004°46'0 0.0
2015-May-01 08:32N 52°57' E 004°46'0 0.0
2015-May-01 07:32N 52°57' E 004°46'0 0.0
2015-May-01 06:29N 52°57' E 004°46'0 0.0
2015-May-01 05:29N 52°57' E 004°46'0 0.0
2015-May-01 04:17N 52°57' E 004°46'0 0.0
2015-May-01 03:08N 52°57' E 004°46'0 0.0
2015-May-01 02:29N 52°57' E 004°46'0 0.0
2015-May-01 01:23N 52°57' E 004°46'0 0.0
2015-May-01 00:17N 52°57' E 004°46'0 0.0
2015-Apr-30 23:29N 52°57' E 004°46'0 0.0
2015-Apr-30 22:11N 52°57' E 004°46'0 0.0
2015-Apr-30 21:32N 52°57' E 004°46'0 0.0
2015-Apr-30 20:20N 52°57' E 004°46'0 0.0
2015-Apr-30 19:26N 52°57' E 004°46'0 0.0
2015-Apr-30 18:32N 52°57' E 004°46'0 0.0
2015-Apr-30 17:29N 52°57' E 004°46'0 0.0
2015-Apr-30 16:32N 52°57' E 004°46'0 0.0
2015-Apr-30 15:32N 52°57' E 004°46'0 0.0
2015-Apr-30 14:29N 52°57' E 004°46'0 0.0
2015-Apr-30 13:32N 52°57' E 004°46'0 0.0
2015-Apr-30 12:32N 52°57' E 004°46'0 0.0
2015-Apr-30 11:32N 52°57' E 004°46'0 0.0
2015-Apr-30 10:17N 52°57' E 004°46'0 0.0
2015-Apr-30 09:26N 52°57' E 004°46'0 0.0
2015-Apr-30 08:29N 52°57' E 004°46'0 0.0
2015-Apr-30 07:26N 52°57' E 004°46'0 0.0
2015-Apr-30 06:23N 52°57' E 004°46'0 0.0
2015-Apr-30 05:23N 52°57' E 004°46'0 0.0
2015-Apr-30 04:26N 52°57' E 004°46'0 0.0
2015-Apr-30 03:29N 52°57' E 004°46'0 0.0
2015-Apr-30 02:32N 52°57' E 004°46'0 0.0
2015-Apr-30 01:26N 52°57' E 004°46'0 0.0
2015-Apr-30 00:23N 52°57' E 004°46'0 0.0
2015-Apr-29 23:26N 52°57' E 004°46'0 0.0
2015-Apr-29 22:32N 52°57' E 004°46'0 0.0
2015-Apr-29 21:29N 52°57' E 004°46'0 0.0
2015-Apr-29 20:26N 52°57' E 004°46'0 0.0
2015-Apr-29 19:26N 52°57' E 004°46'0 0.0
2015-Apr-29 18:17N 52°57' E 004°46'0 0.0
2015-Apr-29 17:29N 52°57' E 004°46'0 0.0
2015-Apr-29 16:23N 52°57' E 004°46'0 0.0
2015-Apr-29 15:05N 52°57' E 004°46'0 0.0
2015-Apr-29 14:17N 52°57' E 004°46'0 0.0
2015-Apr-29 12:20N 52°57' E 004°46'0 0.0
2015-Apr-29 11:32N 52°57' E 004°46'0 0.0
2015-Apr-29 10:29N 52°57' E 004°46'0 0.0
2015-Apr-29 09:14N 52°57' E 004°46'0 0.0
2015-Apr-29 08:26N 52°57' E 004°46'0 0.0
2015-Apr-29 07:29N 52°57' E 004°46'0 0.0
2015-Apr-29 06:29N 52°57' E 004°46'0 0.0
2015-Apr-29 05:29N 52°57' E 004°46'0 0.0
2015-Apr-29 04:20N 52°57' E 004°46'0 0.0
2015-Apr-29 03:23N 52°57' E 004°46'0 0.0
2015-Apr-29 02:32N 52°57' E 004°46'0 0.0
2015-Apr-29 01:29N 52°57' E 004°46'0 0.0
2015-Apr-29 00:20N 52°57' E 004°46'0 0.0
2015-Apr-28 23:08N 52°57' E 004°46'0 0.0
2015-Apr-28 22:32N 52°57' E 004°46'0 0.0
2015-Apr-28 21:26N 52°57' E 004°46'0 0.0
2015-Apr-28 20:32N 52°57' E 004°46'0 0.0
2015-Apr-28 19:29N 52°57' E 004°46'0 0.0
2015-Apr-28 18:32N 52°57' E 004°46'0 0.0
2015-Apr-28 17:32N 52°57' E 004°46'0 0.0
2015-Apr-28 16:32N 52°57' E 004°46'0 0.0
2015-Apr-28 15:26N 52°57' E 004°46'0 0.0
2015-Apr-28 14:26N 52°57' E 004°46'0 0.0
2015-Apr-28 13:26N 52°57' E 004°46'0 0.0
2015-Apr-28 12:29N 52°57' E 004°46'0 0.0
2015-Apr-28 11:32N 52°57' E 004°46'0 0.0
2015-Apr-28 10:32N 52°57' E 004°46'0 0.0
2015-Apr-28 09:32N 52°57' E 004°46'0 0.0
2015-Apr-28 08:29N 52°57' E 004°46'0 0.0
2015-Apr-28 07:26N 52°57' E 004°46'0 0.0
2015-Apr-28 06:26N 52°57' E 004°46'0 0.0
2015-Apr-28 05:32N 52°57' E 004°46'0 0.0
2015-Apr-28 04:32N 52°57' E 004°46'0 0.0
2015-Apr-28 03:26N 52°57' E 004°46'0 0.0
2015-Apr-28 02:29N 52°57' E 004°46'0 0.0
2015-Apr-28 01:32N 52°57' E 004°46'0 0.0
2015-Apr-28 00:32N 52°57' E 004°46'0 0.0
2015-Apr-27 23:14N 52°57' E 004°46'0 0.0
2015-Apr-27 22:32N 52°57' E 004°46'0 0.0
2015-Apr-27 21:26N 52°57' E 004°46'0 0.0
2015-Apr-27 20:32N 52°57' E 004°46'0 0.0
2015-Apr-27 19:29N 52°57' E 004°46'0 0.0
2015-Apr-27 18:29N 52°57' E 004°46'0 0.0
2015-Apr-27 17:26N 52°57' E 004°46'0 0.0
2015-Apr-27 16:32N 52°57' E 004°46'0 0.0
2015-Apr-27 15:29N 52°57' E 004°46'0 0.0
2015-Apr-27 14:32N 52°57' E 004°46'0 0.0
2015-Apr-27 13:20N 52°57' E 004°46'0 0.0
2015-Apr-27 12:32N 52°57' E 004°46'0 0.0
2015-Apr-27 11:32N 52°57' E 004°46'0 0.0
2015-Apr-27 10:26N 52°57' E 004°46'0 0.0
2015-Apr-27 09:32N 52°57' E 004°46'0 0.0
2015-Apr-27 08:26N 52°57' E 004°46'0 0.0
2015-Apr-27 07:32N 52°57' E 004°46'0 0.0
2015-Apr-27 04:14N 52°57' E 004°46'0 0.0
2015-Apr-27 03:26N 52°57' E 004°46'0 0.0
2015-Apr-27 02:29N 52°57' E 004°46'0 0.0
2015-Apr-26 23:32N 52°57' E 004°46'0 0.0
2015-Apr-26 20:32N 52°57' E 004°46'0 0.0
2015-Apr-26 19:32N 52°57' E 004°46'0 0.0
2015-Apr-26 11:29N 52°57' E 004°46'1 1.1
2015-Apr-26 10:33N 52°58' E 004°47'4 3.5
2015-Apr-26 09:33N 53°01' E 004°51'2 1.8
2015-Apr-26 08:34N 52°60' E 004°49'3 3.3
2015-Apr-26 07:31N 52°58' E 004°44'29 2.7
2015-Apr-25 20:30N 52°34' E 004°17'9 9.2
2015-Apr-25 19:34N 52°25' E 004°14'7 7.3
2015-Apr-25 18:33N 52°19' E 004°09'7 7.4
2015-Apr-25 17:33N 52°12' E 004°05'8 7.9
2015-Apr-25 16:33N 52°04' E 004°04'6 6.5
2015-Apr-25 15:33N 51°58' E 004°05'1 1.2
2015-Apr-25 14:33N 51°58' E 004°03'0 0.3
2015-Apr-25 13:33N 51°58' E 004°03'1 1.5
2015-Apr-25 12:33N 51°59' E 004°04'6 5.9
2015-Apr-25 11:33N 51°56' E 004°13'6 5.3
2015-Apr-25 10:28N 51°54' E 004°21'5 5.0
2015-Apr-25 09:32N 51°54' E 004°29'0 0.0
2015-Apr-25 08:32N 51°54' E 004°29'0 0.0
2015-Apr-25 07:32N 51°54' E 004°29'0 0.0
2015-Apr-25 06:32N 51°54' E 004°29'0 0.0
2015-Apr-25 05:32N 51°54' E 004°29'0 0.0
2015-Apr-25 04:32N 51°54' E 004°29'0 0.0
2015-Apr-25 03:32N 51°54' E 004°29'0 0.0
2015-Apr-25 02:32N 51°54' E 004°29'0 0.0
2015-Apr-25 01:32N 51°54' E 004°29'0 0.0
2015-Apr-25 00:32N 51°54' E 004°29'0 0.0
2015-Apr-24 23:32N 51°54' E 004°29'0 0.0
2015-Apr-24 22:32N 51°54' E 004°29'0 0.0
2015-Apr-24 21:32N 51°54' E 004°29'0 0.0
2015-Apr-24 20:32N 51°54' E 004°29'0 0.0
2015-Apr-24 19:32N 51°54' E 004°29'0 0.0
2015-Apr-24 18:32N 51°54' E 004°29'0 0.0
2015-Apr-24 17:32N 51°54' E 004°29'0 0.0
2015-Apr-24 16:32N 51°54' E 004°29'0 0.0
2015-Apr-24 15:32N 51°54' E 004°29'0 0.0
2015-Apr-24 14:32N 51°54' E 004°29'0 0.0
2015-Apr-24 13:32N 51°54' E 004°29'0 0.0
2015-Apr-24 12:32N 51°54' E 004°29'0 0.0
2015-Apr-24 11:32N 51°54' E 004°29'0 0.2
2015-Apr-24 10:33N 51°54' E 004°29'4 4.4
2015-Apr-24 09:33N 51°54' E 004°21'4 4.4
2015-Apr-24 08:33N 51°55' E 004°15'5 4.6
2015-Apr-24 07:33N 51°58' E 004°09'5 4.7
2015-Apr-24 06:33N 51°60' E 004°02'6 5.9
2015-Apr-24 05:28N 51°59' E 003°51'6 6.4
2015-Apr-24 04:33N 51°58' E 003°42'8 7.6
2015-Apr-24 03:33N 51°56' E 003°30'7 6.5
2015-Apr-24 02:33N 51°54' E 003°20'6 5.8
2015-Apr-24 01:31N 51°52' E 003°11'7 5.3
2015-Apr-24 00:14N 51°50' E 003°01'3 5.0
2015-Apr-23 23:34N 51°49' E 002°55'5 4.9
2015-Apr-23 22:31N 51°47' E 002°48'11 5.5
2015-Apr-23 20:33N 51°41' E 002°33'  

Dump ship's entire track history